SAZB/BHI METAR and TAF weather

Enter ICAO airport designator
Station Type Date Time Source
SAZB METAR 2019/10/21 19:27 UTC NOAA

SAZB 211927Z 25020G33KT 9999 FEW045 20/M02 Q1013


Station Type Date Time Source
SAZB Decoded METAR 2019/10/21 19:27 UTC NOAA

Bahia Blanca Aerodrome, Argentina (SAZB) 38-44S 062-10W 83M
Oct 21, 2019 - 03:27 PM EDT / 2019.10.21 1927 UTC
Wind: from the WSW (250 degrees) at 23 MPH (20 KT) gusting to 38 MPH (33 KT):0
Visibility: greater than 7 mile(s):0
Sky conditions: mostly clear
Temperature: 68 F (20 C)
Dew Point: 28 F (-2 C)
Relative Humidity: 22%
Pressure (altimeter): 29.91 in. Hg (1013 hPa)
ob: SAZB 211927Z 25020G33KT 9999 FEW045 20/M02 Q1013
cycle: 19

Station Type Date Time Source
SAZB TAF 2019/10/17 12:21 UTC NOAA

TAF SAZB 171100Z 1712/1812 11010KT 6000 -RA BKN007 OVC030 TX16/1718Z TN08/1809Z
BECMG 1715/1717 18010KT 9999 NSW BKN020
BECMG 1721/1723 25005KT 9999 SCT035
BECMG 1803/1805 3000 BR SCT010

Example: see airport list